createdAt,value
2019-05-21T00:00:43.458Z,36906.30
2019-05-21T00:01:49.321Z,36874.43
2019-05-21T00:02:55.743Z,36885.39
2019-05-21T00:04:01.616Z,36855.50
2019-05-21T00:05:09.531Z,36874.43
2019-05-21T00:06:15.443Z,36855.50
2019-05-21T00:07:21.822Z,36849.53
2019-05-21T00:08:27.721Z,36760.89
2019-05-21T00:09:34.152Z,36754.91
2019-05-21T00:10:40.107Z,36772.84
2019-05-21T00:11:46.453Z,36778.82
2019-05-21T00:12:52.339Z,36803.71
2019-05-21T00:13:58.737Z,36790.77
2019-05-21T00:15:04.761Z,36795.75
2019-05-21T00:16:11.166Z,36774.83
2019-05-21T00:17:17.041Z,36762.88
2019-05-21T00:18:23.542Z,36778.82
2019-05-21T00:19:29.422Z,36765.87
2019-05-21T00:20:35.898Z,36768.86
2019-05-21T00:21:41.686Z,36765.87
2019-05-21T00:22:48.208Z,36748.93
2019-05-21T00:23:54.016Z,36754.91
2019-05-21T00:25:00.455Z,36795.75
2019-05-21T00:26:06.368Z,36786.78
2019-05-21T00:27:12.727Z,36800.73
2019-05-21T00:28:37.316Z,36811.68
2019-05-21T00:30:19.566Z,36806.70
2019-05-21T00:32:01.668Z,36857.50
2019-05-21T00:33:43.863Z,36831.60
2019-05-21T00:35:27.591Z,36864.47
2019-05-21T00:37:11.429Z,36843.55
2019-05-21T00:38:53.504Z,36874.43
2019-05-21T00:40:35.640Z,36884.39
2019-05-21T00:42:02.909Z,36896.34
2019-05-21T00:43:09.719Z,36920.25
2019-05-21T00:44:16.079Z,36905.30
2019-05-21T00:45:21.853Z,36937.18
2019-05-21T00:46:28.346Z,36976.02
2019-05-21T00:47:34.223Z,36980.01
2019-05-21T00:48:40.549Z,36998.93
2019-05-21T00:49:46.422Z,36983.99
2019-05-21T00:50:52.876Z,37013.87
2019-05-21T00:52:06.885Z,37009.89
2019-05-21T00:53:06.806Z,37007.89
2019-05-21T00:54:12.694Z,37024.83
2019-05-21T00:55:19.057Z,37053.71
2019-05-21T00:56:24.855Z,37058.69
2019-05-21T00:57:31.311Z,37066.66
2019-05-21T00:58:37.091Z,37044.75
2019-05-21T00:59:43.615Z,37049.73
2019-05-21T01:00:49.586Z,37076.62
2019-05-21T01:01:54.277Z,37047.74
2019-05-21T01:03:00.152Z,37053.71
2019-05-21T01:04:06.676Z,37053.71
2019-05-21T01:05:12.537Z,37062.68
2019-05-21T01:06:19.027Z,37061.68
2019-05-21T01:07:24.907Z,37077.62
2019-05-21T01:08:31.337Z,37067.66
2019-05-21T01:09:37.219Z,37073.63
2019-05-21T01:10:43.576Z,37075.62
2019-05-21T01:11:49.349Z,37110.49
2019-05-21T01:12:55.704Z,37124.43
2019-05-21T01:14:01.693Z,37101.52
2019-05-21T01:15:08.371Z,37145.35
2019-05-21T01:16:14.283Z,37161.29
2019-05-21T01:17:20.697Z,37136.39
2019-05-21T01:18:26.569Z,37156.31
2019-05-21T01:19:33.049Z,37135.39
2019-05-21T01:20:38.894Z,37165.27
2019-05-21T01:21:45.365Z,37160.29
2019-05-21T01:22:51.132Z,37172.25
2019-05-21T01:23:57.552Z,37187.19
2019-05-21T01:25:03.410Z,37163.28
2019-05-21T01:26:09.767Z,37180.21
2019-05-21T01:27:15.604Z,37177.22
2019-05-21T01:28:21.996Z,37177.22
2019-05-21T01:29:27.899Z,37190.18
2019-05-21T01:30:34.226Z,37207.11
2019-05-21T01:31:39.998Z,37205.12
2019-05-21T01:32:46.349Z,37202.12
2019-05-21T01:33:52.161Z,37223.05
2019-05-21T01:34:58.664Z,37197.14
2019-05-21T01:36:04.593Z,37231.01
2019-05-21T01:37:10.949Z,37201.13
2019-05-21T01:38:16.886Z,37231.01
2019-05-21T01:39:23.339Z,37210.09
2019-05-21T01:40:29.183Z,37223.05
2019-05-21T01:41:35.530Z,37222.05
2019-05-21T01:42:41.428Z,37224.04
2019-05-21T01:43:47.835Z,37243.96
2019-05-21T01:44:53.785Z,37254.92
2019-05-21T01:46:00.214Z,37256.91
2019-05-21T01:47:06.186Z,37281.82
2019-05-21T01:48:12.578Z,37302.73
2019-05-21T01:49:18.430Z,37295.76
2019-05-21T01:50:24.793Z,37330.62
2019-05-21T01:51:30.595Z,37338.59
2019-05-21T01:52:36.955Z,37348.55
2019-05-21T01:53:42.821Z,37362.50
2019-05-21T01:54:49.341Z,37343.57
2019-05-21T01:55:55.201Z,37347.56
2019-05-21T01:57:01.565Z,37335.61
2019-05-21T01:58:07.443Z,37334.61
2019-05-21T01:59:13.855Z,37358.52
2019-05-21T02:00:20.653Z,37357.52
2019-05-21T02:01:27.054Z,37337.59
2019-05-21T02:02:32.846Z,37365.49
2019-05-21T02:03:39.217Z,37379.43
2019-05-21T02:04:45.115Z,37416.29
2019-05-21T02:05:51.813Z,37374.45
2019-05-21T02:06:57.759Z,37355.53
2019-05-21T02:08:04.281Z,37396.37
2019-05-21T02:09:10.293Z,37386.41
2019-05-21T02:10:16.838Z,37396.37
2019-05-21T02:11:22.710Z,37434.22
2019-05-21T02:12:29.217Z,37452.15
2019-05-21T02:13:37.550Z,37425.25
2019-05-21T02:14:43.914Z,37421.27
2019-05-21T02:15:49.792Z,37441.20
2019-05-21T02:16:56.227Z,37432.23
2019-05-21T02:18:02.079Z,37423.26
2019-05-21T02:19:08.480Z,37452.15
2019-05-21T02:20:19.745Z,114928.24
2019-05-21T02:21:31.458Z,114928.24
2019-05-21T02:22:38.888Z,114928.24
2019-05-21T02:23:56.039Z,114928.24
2019-05-21T02:25:30.469Z,114928.24
2019-05-21T02:26:38.438Z,114928.24
2019-05-21T02:28:52.588Z,114928.24
2019-05-21T02:29:59.005Z,114928.24
2019-05-21T02:31:05.051Z,114928.24
2019-05-21T02:33:40.057Z,114928.24
2019-05-21T02:36:06.876Z,114928.24
2019-05-21T02:37:32.123Z,114928.24
2019-05-21T02:40:15.001Z,114928.24
2019-05-21T02:46:23.678Z,114928.24
2019-05-21T02:47:33.347Z,114928.24
2019-05-21T02:48:56.429Z,114928.24
2019-05-21T02:50:19.362Z,114928.24
2019-05-21T02:51:43.066Z,114928.24
2019-05-21T02:53:17.547Z,114928.24
2019-05-21T02:54:39.318Z,114928.24
2019-05-21T02:56:37.829Z,114928.24
2019-05-21T02:57:45.616Z,114928.24
2019-05-21T02:58:55.218Z,114928.24
2019-05-21T03:00:07.881Z,114928.24
2019-05-21T03:02:41.008Z,114928.24
2019-05-21T03:06:15.600Z,114928.24
2019-05-21T03:07:25.553Z,114928.24
2019-05-21T03:09:08.867Z,114928.24
2019-05-21T03:10:16.916Z,114928.24
2019-05-21T03:11:31.692Z,114928.24
2019-05-21T03:13:13.072Z,115060.17
2019-05-21T03:14:27.755Z,114928.24
2019-05-21T03:15:33.820Z,114928.24
2019-05-21T03:16:40.701Z,114928.24
2019-05-21T03:17:53.683Z,114928.24
2019-05-21T03:19:02.668Z,114928.24
2019-05-21T03:20:16.846Z,114928.24
2019-05-21T03:21:30.125Z,114928.24
2019-05-21T03:22:42.349Z,114928.24
2019-05-21T03:23:48.843Z,114668.26
2019-05-21T03:25:36.392Z,115060.17
2019-05-21T03:26:42.839Z,115060.17
2019-05-21T03:44:10.132Z,115060.17
2019-05-21T03:45:20.914Z,114928.24
2019-05-21T03:48:49.364Z,115060.17
2019-05-21T03:49:58.443Z,114928.24
2019-05-21T03:51:05.867Z,115060.17
2019-05-21T03:52:13.095Z,114928.24
2019-05-21T03:53:46.474Z,114668.26
2019-05-21T03:55:03.091Z,115060.17
2019-05-21T03:57:10.920Z,115060.17
2019-05-21T03:58:17.495Z,114928.24
2019-05-21T03:59:27.940Z,114928.24
2019-05-21T04:23:52.218Z,115060.17
2019-05-21T04:25:19.130Z,114928.24
2019-05-21T04:26:47.323Z,114928.24
2019-05-21T04:27:54.760Z,114928.24
2019-05-21T04:29:02.357Z,114928.24
2019-05-21T04:31:26.774Z,115060.17
2019-05-21T04:32:41.903Z,114668.26
2019-05-21T04:34:45.536Z,115060.17
2019-05-21T04:42:04.650Z,114928.24
2019-05-21T04:47:19.351Z,115060.17
2019-05-21T04:49:38.220Z,114928.24
2019-05-21T04:51:18.590Z,115060.17
2019-05-21T04:55:29.141Z,115060.17
2019-05-21T04:56:36.152Z,115060.17
2019-05-21T04:57:46.070Z,115060.17
2019-05-21T04:59:04.095Z,114928.24
2019-05-21T05:00:12.591Z,114928.24
2019-05-21T05:10:11.234Z,115060.17
2019-05-21T06:07:39.103Z,115060.17
2019-05-21T06:24:30.167Z,115060.17
2019-05-21T06:25:59.596Z,114928.24
2019-05-21T06:27:30.104Z,114928.24
2019-05-21T06:28:40.618Z,114928.24
2019-05-21T06:29:47.290Z,115060.17
2019-05-21T06:30:59.866Z,114928.24
2019-05-21T06:34:33.958Z,114928.24
2019-05-21T07:26:06.737Z,115060.17
2019-05-21T07:27:14.374Z,114928.24
2019-05-21T07:28:32.456Z,114928.24
2019-05-21T07:30:09.126Z,114928.24
2019-05-21T07:31:21.982Z,114928.24
2019-05-21T07:32:28.397Z,115060.17
2019-05-21T07:34:00.887Z,115060.17
2019-05-21T07:59:25.886Z,114928.24
2019-05-21T08:00:32.638Z,114928.24
2019-05-21T08:03:51.104Z,114928.24
2019-05-21T08:04:57.651Z,114928.24
2019-05-21T08:09:41.302Z,114928.24
2019-05-21T08:10:59.817Z,114928.24
2019-05-21T08:14:57.383Z,114928.24
